sensor_id;sensor_type;location;lat;lon;timestamp;temperature;humidity
35962;DHT22;22044;48.298;10.008;2022-12-20T00:02:02;0.00;99.90
35962;DHT22;22044;48.298;10.008;2022-12-20T00:04:48;0.10;99.90
35962;DHT22;22044;48.298;10.008;2022-12-20T00:07:35;0.10;99.90
35962;DHT22;22044;48.298;10.008;2022-12-20T00:10:20;0.00;99.90
35962;DHT22;22044;48.298;10.008;2022-12-20T00:13:07;0.00;99.90
35962;DHT22;22044;48.298;10.008;2022-12-20T00:16:03;0.10;99.90
35962;DHT22;22044;48.298;10.008;2022-12-20T00:18:50;0.00;99.90
35962;DHT22;22044;48.298;10.008;2022-12-20T00:21:37;0.00;99.90
35962;DHT22;22044;48.298;10.008;2022-12-20T00:24:23;0.00;99.90
35962;DHT22;22044;48.298;10.008;2022-12-20T00:27:09;0.00;99.90
35962;DHT22;22044;48.298;10.008;2022-12-20T00:29:55;0.00;99.90
35962;DHT22;22044;48.298;10.008;2022-12-20T00:32:41;0.00;99.90
35962;DHT22;22044;48.298;10.008;2022-12-20T00:35:27;0.00;99.90
35962;DHT22;22044;48.298;10.008;2022-12-20T00:38:13;0.00;99.90
35962;DHT22;22044;48.298;10.008;2022-12-20T00:41:01;0.00;99.90
35962;DHT22;22044;48.298;10.008;2022-12-20T00:43:47;0.00;99.90
35962;DHT22;22044;48.298;10.008;2022-12-20T00:46:33;0.00;99.90
35962;DHT22;22044;48.298;10.008;2022-12-20T00:49:19;0.00;99.90
35962;DHT22;22044;48.298;10.008;2022-12-20T00:52:04;0.00;99.90
35962;DHT22;22044;48.298;10.008;2022-12-20T00:54:50;0.00;99.90
35962;DHT22;22044;48.298;10.008;2022-12-20T00:57:37;0.00;99.90
35962;DHT22;22044;48.298;10.008;2022-12-20T01:00:23;0.00;99.90
35962;DHT22;22044;48.298;10.008;2022-12-20T01:03:09;0.00;99.90
35962;DHT22;22044;48.298;10.008;2022-12-20T01:05:55;0.10;99.90
35962;DHT22;22044;48.298;10.008;2022-12-20T01:08:43;0.10;99.90
35962;DHT22;22044;48.298;10.008;2022-12-20T01:11:30;0.10;99.90
35962;DHT22;22044;48.298;10.008;2022-12-20T01:14:17;0.10;99.90
35962;DHT22;22044;48.298;10.008;2022-12-20T01:17:03;0.10;99.90
35962;DHT22;22044;48.298;10.008;2022-12-20T01:19:48;0.20;99.90
35962;DHT22;22044;48.298;10.008;2022-12-20T01:22:34;0.20;99.90
35962;DHT22;22044;48.298;10.008;2022-12-20T01:25:20;0.10;99.90
35962;DHT22;22044;48.298;10.008;2022-12-20T01:28:05;0.10;99.90
35962;DHT22;22044;48.298;10.008;2022-12-20T01:30:52;0.10;99.90
35962;DHT22;22044;48.298;10.008;2022-12-20T01:33:38;0.10;99.90
35962;DHT22;22044;48.298;10.008;2022-12-20T01:36:26;0.10;99.90
35962;DHT22;22044;48.298;10.008;2022-12-20T01:39:15;0.20;99.90
35962;DHT22;22044;48.298;10.008;2022-12-20T01:42:01;0.20;99.90
35962;DHT22;22044;48.298;10.008;2022-12-20T01:44:57;0.20;99.90
35962;DHT22;22044;48.298;10.008;2022-12-20T01:47:44;0.20;99.90
35962;DHT22;22044;48.298;10.008;2022-12-20T01:50:31;0.20;99.90
35962;DHT22;22044;48.298;10.008;2022-12-20T01:53:18;0.10;99.90
35962;DHT22;22044;48.298;10.008;2022-12-20T01:56:06;0.10;99.90
35962;DHT22;22044;48.298;10.008;2022-12-20T01:58:53;0.10;99.90
35962;DHT22;22044;48.298;10.008;2022-12-20T02:01:40;0.20;99.90
35962;DHT22;22044;48.298;10.008;2022-12-20T02:04:27;0.20;99.90
35962;DHT22;22044;48.298;10.008;2022-12-20T02:07:17;0.20;99.90
35962;DHT22;22044;48.298;10.008;2022-12-20T02:10:06;0.20;99.90
35962;DHT22;22044;48.298;10.008;2022-12-20T02:12:56;0.20;99.90
35962;DHT22;22044;48.298;10.008;2022-12-20T02:15:50;0.20;99.90
35962;DHT22;22044;48.298;10.008;2022-12-20T02:18:43;0.20;99.90
35962;DHT22;22044;48.298;10.008;2022-12-20T02:21:36;0.10;99.90
35962;DHT22;22044;48.298;10.008;2022-12-20T02:24:46;0.10;99.90
35962;DHT22;22044;48.298;10.008;2022-12-20T02:27:52;0.10;99.90
35962;DHT22;22044;48.298;10.008;2022-12-20T02:30:42;0.10;99.90
35962;DHT22;22044;48.298;10.008;2022-12-20T02:33:30;0.10;99.90
35962;DHT22;22044;48.298;10.008;2022-12-20T02:36:16;0.10;99.90
35962;DHT22;22044;48.298;10.008;2022-12-20T02:39:04;0.10;99.90
35962;DHT22;22044;48.298;10.008;2022-12-20T02:41:51;0.00;99.90
35962;DHT22;22044;48.298;10.008;2022-12-20T02:44:43;0.10;99.90
35962;DHT22;22044;48.298;10.008;2022-12-20T02:47:52;0.10;99.90
35962;DHT22;22044;48.298;10.008;2022-12-20T02:50:44;0.20;99.90
35962;DHT22;22044;48.298;10.008;2022-12-20T02:53:31;0.20;99.90
35962;DHT22;22044;48.298;10.008;2022-12-20T02:56:22;0.20;99.90
35962;DHT22;22044;48.298;10.008;2022-12-20T02:59:13;0.20;99.90
35962;DHT22;22044;48.298;10.008;2022-12-20T03:02:01;0.20;99.90
35962;DHT22;22044;48.298;10.008;2022-12-20T03:04:48;0.30;99.90
35962;DHT22;22044;48.298;10.008;2022-12-20T03:07:35;0.30;99.90
35962;DHT22;22044;48.298;10.008;2022-12-20T03:10:21;0.30;99.90
35962;DHT22;22044;48.298;10.008;2022-12-20T03:13:07;0.30;99.90
35962;DHT22;22044;48.298;10.008;2022-12-20T03:15:57;0.20;99.90
35962;DHT22;22044;48.298;10.008;2022-12-20T03:18:43;-0.20;99.90
35962;DHT22;22044;48.298;10.008;2022-12-20T03:21:30;-0.20;99.90
35962;DHT22;22044;48.298;10.008;2022-12-20T03:24:17;-0.20;99.90
35962;DHT22;22044;48.298;10.008;2022-12-20T03:27:02;-0.20;99.90
35962;DHT22;22044;48.298;10.008;2022-12-20T03:29:48;-0.20;99.90
35962;DHT22;22044;48.298;10.008;2022-12-20T03:32:34;-0.10;99.90
35962;DHT22;22044;48.298;10.008;2022-12-20T03:35:20;-0.10;99.90
35962;DHT22;22044;48.298;10.008;2022-12-20T03:38:07;0.00;99.90
35962;DHT22;22044;48.298;10.008;2022-12-20T03:40:52;0.00;99.90
35962;DHT22;22044;48.298;10.008;2022-12-20T03:43:39;0.00;99.90
35962;DHT22;22044;48.298;10.008;2022-12-20T03:46:25;-0.10;99.90
35962;DHT22;22044;48.298;10.008;2022-12-20T03:49:11;0.00;99.90
35962;DHT22;22044;48.298;10.008;2022-12-20T03:52:03;0.00;99.90
35962;DHT22;22044;48.298;10.008;2022-12-20T03:54:51;0.00;99.90
35962;DHT22;22044;48.298;10.008;2022-12-20T03:57:39;0.00;99.90
35962;DHT22;22044;48.298;10.008;2022-12-20T04:00:38;0.00;99.90
35962;DHT22;22044;48.298;10.008;2022-12-20T04:03:51;0.00;99.90
35962;DHT22;22044;48.298;10.008;2022-12-20T04:06:36;0.00;99.90
35962;DHT22;22044;48.298;10.008;2022-12-20T04:09:22;0.00;99.90
35962;DHT22;22044;48.298;10.008;2022-12-20T04:12:14;-0.10;99.90
35962;DHT22;22044;48.298;10.008;2022-12-20T04:15:00;-0.10;99.90
35962;DHT22;22044;48.298;10.008;2022-12-20T04:17:47;0.00;99.90
35962;DHT22;22044;48.298;10.008;2022-12-20T04:20:33;0.00;99.90
35962;DHT22;22044;48.298;10.008;2022-12-20T04:23:31;0.00;99.90
35962;DHT22;22044;48.298;10.008;2022-12-20T04:26:17;-0.10;99.90
35962;DHT22;22044;48.298;10.008;2022-12-20T04:29:05;-0.10;99.90
35962;DHT22;22044;48.298;10.008;2022-12-20T04:31:50;-0.10;99.90
35962;DHT22;22044;48.298;10.008;2022-12-20T04:34:37;-0.20;99.90
35962;DHT22;22044;48.298;10.008;2022-12-20T04:37:23;-0.20;99.90
35962;DHT22;22044;48.298;10.008;2022-12-20T04:40:11;-0.20;99.90
35962;DHT22;22044;48.298;10.008;2022-12-20T04:43:11;-0.20;99.90
35962;DHT22;22044;48.298;10.008;2022-12-20T04:45:58;-0.10;99.90
35962;DHT22;22044;48.298;10.008;2022-12-20T04:48:44;-0.10;99.90
35962;DHT22;22044;48.298;10.008;2022-12-20T04:51:29;-0.10;99.90
35962;DHT22;22044;48.298;10.008;2022-12-20T04:54:15;-0.10;99.90
35962;DHT22;22044;48.298;10.008;2022-12-20T04:57:08;-0.10;99.90
35962;DHT22;22044;48.298;10.008;2022-12-20T04:59:53;-0.10;99.90
35962;DHT22;22044;48.298;10.008;2022-12-20T05:02:40;0.00;99.90
35962;DHT22;22044;48.298;10.008;2022-12-20T05:05:29;0.00;99.90
35962;DHT22;22044;48.298;10.008;2022-12-20T05:08:15;0.00;99.90
35962;DHT22;22044;48.298;10.008;2022-12-20T05:11:02;0.00;99.90
35962;DHT22;22044;48.298;10.008;2022-12-20T05:13:48;0.00;99.90
35962;DHT22;22044;48.298;10.008;2022-12-20T05:16:37;0.10;99.90
35962;DHT22;22044;48.298;10.008;2022-12-20T05:19:25;0.10;99.90
35962;DHT22;22044;48.298;10.008;2022-12-20T05:22:11;0.20;99.90
35962;DHT22;22044;48.298;10.008;2022-12-20T05:25:22;0.20;99.90
35962;DHT22;22044;48.298;10.008;2022-12-20T05:28:25;0.20;99.90
35962;DHT22;22044;48.298;10.008;2022-12-20T05:31:11;0.30;99.90
35962;DHT22;22044;48.298;10.008;2022-12-20T05:33:57;0.30;99.90
35962;DHT22;22044;48.298;10.008;2022-12-20T05:36:48;0.40;99.90
35962;DHT22;22044;48.298;10.008;2022-12-20T05:39:34;0.40;99.90
35962;DHT22;22044;48.298;10.008;2022-12-20T05:42:25;0.40;99.90
35962;DHT22;22044;48.298;10.008;2022-12-20T05:45:11;0.40;99.90
35962;DHT22;22044;48.298;10.008;2022-12-20T05:48:06;0.40;99.90
35962;DHT22;22044;48.298;10.008;2022-12-20T05:50:55;0.50;99.90
35962;DHT22;22044;48.298;10.008;2022-12-20T05:53:45;0.50;99.90
35962;DHT22;22044;48.298;10.008;2022-12-20T05:56:32;0.50;99.90
35962;DHT22;22044;48.298;10.008;2022-12-20T05:59:18;0.50;99.90
35962;DHT22;22044;48.298;10.008;2022-12-20T06:02:04;0.50;99.90
35962;DHT22;22044;48.298;10.008;2022-12-20T06:04:51;0.40;99.90
35962;DHT22;22044;48.298;10.008;2022-12-20T06:07:39;0.40;99.90
35962;DHT22;22044;48.298;10.008;2022-12-20T06:10:26;0.40;99.90
35962;DHT22;22044;48.298;10.008;2022-12-20T06:13:15;0.40;99.90
35962;DHT22;22044;48.298;10.008;2022-12-20T06:16:01;0.40;99.90
35962;DHT22;22044;48.298;10.008;2022-12-20T06:18:48;0.50;99.90
35962;DHT22;22044;48.298;10.008;2022-12-20T06:21:34;0.50;99.90
35962;DHT22;22044;48.298;10.008;2022-12-20T06:24:20;0.40;99.90
35962;DHT22;22044;48.298;10.008;2022-12-20T06:27:10;0.40;99.90
35962;DHT22;22044;48.298;10.008;2022-12-20T06:29:56;0.40;99.90
35962;DHT22;22044;48.298;10.008;2022-12-20T06:32:46;0.30;99.90
35962;DHT22;22044;48.298;10.008;2022-12-20T06:35:32;0.30;99.90
35962;DHT22;22044;48.298;10.008;2022-12-20T06:38:17;0.30;99.90
35962;DHT22;22044;48.298;10.008;2022-12-20T06:41:03;0.20;99.90
35962;DHT22;22044;48.298;10.008;2022-12-20T06:43:51;0.20;99.90
35962;DHT22;22044;48.298;10.008;2022-12-20T06:46:37;0.10;99.90
35962;DHT22;22044;48.298;10.008;2022-12-20T06:49:22;0.20;99.90
35962;DHT22;22044;48.298;10.008;2022-12-20T06:52:09;0.10;99.90
35962;DHT22;22044;48.298;10.008;2022-12-20T06:55:04;0.10;99.90
35962;DHT22;22044;48.298;10.008;2022-12-20T06:57:53;0.20;99.90
35962;DHT22;22044;48.298;10.008;2022-12-20T07:00:41;0.20;99.90
35962;DHT22;22044;48.298;10.008;2022-12-20T07:03:27;0.20;99.90
35962;DHT22;22044;48.298;10.008;2022-12-20T07:06:12;0.10;99.90
35962;DHT22;22044;48.298;10.008;2022-12-20T07:08:58;0.20;99.90
35962;DHT22;22044;48.298;10.008;2022-12-20T07:11:44;0.30;99.90
35962;DHT22;22044;48.298;10.008;2022-12-20T07:14:29;0.20;99.90
35962;DHT22;22044;48.298;10.008;2022-12-20T07:17:16;0.20;99.90
35962;DHT22;22044;48.298;10.008;2022-12-20T07:20:02;0.20;99.90
35962;DHT22;22044;48.298;10.008;2022-12-20T07:22:48;0.10;99.90
35962;DHT22;22044;48.298;10.008;2022-12-20T07:25:34;0.10;99.90
35962;DHT22;22044;48.298;10.008;2022-12-20T07:28:19;0.20;99.90
35962;DHT22;22044;48.298;10.008;2022-12-20T07:31:05;0.30;99.90
35962;DHT22;22044;48.298;10.008;2022-12-20T07:33:52;0.30;99.90
35962;DHT22;22044;48.298;10.008;2022-12-20T07:36:37;0.20;99.90
35962;DHT22;22044;48.298;10.008;2022-12-20T07:39:23;0.20;99.90
35962;DHT22;22044;48.298;10.008;2022-12-20T07:42:10;0.20;99.90
35962;DHT22;22044;48.298;10.008;2022-12-20T07:45:07;0.30;99.90
35962;DHT22;22044;48.298;10.008;2022-12-20T07:47:53;0.30;99.90
35962;DHT22;22044;48.298;10.008;2022-12-20T07:50:41;0.30;99.90
35962;DHT22;22044;48.298;10.008;2022-12-20T07:53:28;0.40;99.90
35962;DHT22;22044;48.298;10.008;2022-12-20T07:56:15;0.50;99.90
35962;DHT22;22044;48.298;10.008;2022-12-20T07:59:02;0.40;99.90
35962;DHT22;22044;48.298;10.008;2022-12-20T08:01:48;0.50;99.90
35962;DHT22;22044;48.298;10.008;2022-12-20T08:04:33;0.50;99.90
35962;DHT22;22044;48.298;10.008;2022-12-20T08:07:20;0.50;99.90
35962;DHT22;22044;48.298;10.008;2022-12-20T08:10:09;0.50;99.90
35962;DHT22;22044;48.298;10.008;2022-12-20T08:12:57;0.50;99.90
35962;DHT22;22044;48.298;10.008;2022-12-20T08:15:43;0.40;99.90
35962;DHT22;22044;48.298;10.008;2022-12-20T08:18:28;0.40;99.90
35962;DHT22;22044;48.298;10.008;2022-12-20T08:21:15;0.40;99.90
35962;DHT22;22044;48.298;10.008;2022-12-20T08:24:02;0.50;99.90
35962;DHT22;22044;48.298;10.008;2022-12-20T08:26:48;0.40;99.90
35962;DHT22;22044;48.298;10.008;2022-12-20T08:29:33;0.40;99.90
35962;DHT22;22044;48.298;10.008;2022-12-20T08:32:19;0.50;99.90
35962;DHT22;22044;48.298;10.008;2022-12-20T08:35:05;0.50;99.90
35962;DHT22;22044;48.298;10.008;2022-12-20T08:37:51;0.50;99.90
35962;DHT22;22044;48.298;10.008;2022-12-20T08:40:38;0.60;99.90
35962;DHT22;22044;48.298;10.008;2022-12-20T08:43:23;0.60;99.90
35962;DHT22;22044;48.298;10.008;2022-12-20T08:46:10;0.60;99.90
35962;DHT22;22044;48.298;10.008;2022-12-20T08:48:56;0.70;99.90
35962;DHT22;22044;48.298;10.008;2022-12-20T08:51:41;0.70;99.90
35962;DHT22;22044;48.298;10.008;2022-12-20T08:54:27;0.80;99.90
35962;DHT22;22044;48.298;10.008;2022-12-20T08:57:14;0.80;99.90
35962;DHT22;22044;48.298;10.008;2022-12-20T09:00:00;0.70;99.90
35962;DHT22;22044;48.298;10.008;2022-12-20T09:02:46;0.70;99.90
35962;DHT22;22044;48.298;10.008;2022-12-20T09:05:32;0.70;99.90
35962;DHT22;22044;48.298;10.008;2022-12-20T09:08:18;0.70;99.90
35962;DHT22;22044;48.298;10.008;2022-12-20T09:11:04;0.70;99.90
35962;DHT22;22044;48.298;10.008;2022-12-20T09:13:53;0.80;99.90
35962;DHT22;22044;48.298;10.008;2022-12-20T09:16:39;0.80;99.90
35962;DHT22;22044;48.298;10.008;2022-12-20T09:19:24;0.90;99.90
35962;DHT22;22044;48.298;10.008;2022-12-20T09:22:10;1.00;99.90
35962;DHT22;22044;48.298;10.008;2022-12-20T09:24:55;1.10;99.90
35962;DHT22;22044;48.298;10.008;2022-12-20T09:27:41;1.20;99.90
35962;DHT22;22044;48.298;10.008;2022-12-20T09:30:28;1.20;99.90
35962;DHT22;22044;48.298;10.008;2022-12-20T09:33:14;1.20;99.90
35962;DHT22;22044;48.298;10.008;2022-12-20T09:36:02;1.20;99.90
35962;DHT22;22044;48.298;10.008;2022-12-20T09:38:48;1.30;99.90
35962;DHT22;22044;48.298;10.008;2022-12-20T09:41:37;1.40;99.90
35962;DHT22;22044;48.298;10.008;2022-12-20T09:44:28;1.40;99.90
35962;DHT22;22044;48.298;10.008;2022-12-20T09:47:18;1.40;99.90
35962;DHT22;22044;48.298;10.008;2022-12-20T09:50:05;1.40;99.90
35962;DHT22;22044;48.298;10.008;2022-12-20T09:53:02;1.50;99.90
35962;DHT22;22044;48.298;10.008;2022-12-20T09:55:55;1.50;99.90
35962;DHT22;22044;48.298;10.008;2022-12-20T09:58:57;1.50;99.90
35962;DHT22;22044;48.298;10.008;2022-12-20T10:01:45;1.60;99.90
35962;DHT22;22044;48.298;10.008;2022-12-20T10:04:32;1.50;99.90
35962;DHT22;22044;48.298;10.008;2022-12-20T10:07:27;1.50;99.90
35962;DHT22;22044;48.298;10.008;2022-12-20T10:10:36;1.50;99.90
35962;DHT22;22044;48.298;10.008;2022-12-20T10:13:42;1.50;99.90
35962;DHT22;22044;48.298;10.008;2022-12-20T10:16:39;1.50;99.90
35962;DHT22;22044;48.298;10.008;2022-12-20T10:22:32;1.40;99.90
35962;DHT22;22044;48.298;10.008;2022-12-20T10:25:23;1.50;99.90
35962;DHT22;22044;48.298;10.008;2022-12-20T10:28:12;1.50;99.90
35962;DHT22;22044;48.298;10.008;2022-12-20T10:31:01;1.60;99.90
35962;DHT22;22044;48.298;10.008;2022-12-20T10:33:47;1.50;99.90
35962;DHT22;22044;48.298;10.008;2022-12-20T10:36:34;1.60;99.90
35962;DHT22;22044;48.298;10.008;2022-12-20T10:39:39;1.60;99.90
35962;DHT22;22044;48.298;10.008;2022-12-20T10:42:33;1.50;99.90
35962;DHT22;22044;48.298;10.008;2022-12-20T10:45:28;1.40;99.90
35962;DHT22;22044;48.298;10.008;2022-12-20T10:48:28;1.50;99.90
35962;DHT22;22044;48.298;10.008;2022-12-20T10:51:19;1.60;99.90
35962;DHT22;22044;48.298;10.008;2022-12-20T10:54:22;1.70;99.90
35962;DHT22;22044;48.298;10.008;2022-12-20T10:57:17;1.80;99.90
35962;DHT22;22044;48.298;10.008;2022-12-20T11:00:05;1.90;99.90
35962;DHT22;22044;48.298;10.008;2022-12-20T11:03:02;2.00;99.90
35962;DHT22;22044;48.298;10.008;2022-12-20T11:05:55;2.10;99.90
35962;DHT22;22044;48.298;10.008;2022-12-20T11:08:41;2.00;99.90
35962;DHT22;22044;48.298;10.008;2022-12-20T11:11:28;2.00;99.90
35962;DHT22;22044;48.298;10.008;2022-12-20T11:14:14;2.00;99.90
35962;DHT22;22044;48.298;10.008;2022-12-20T11:17:04;2.00;99.90
35962;DHT22;22044;48.298;10.008;2022-12-20T11:23:14;2.20;99.90
35962;DHT22;22044;48.298;10.008;2022-12-20T11:26:15;2.30;99.90
35962;DHT22;22044;48.298;10.008;2022-12-20T11:29:21;2.40;99.90
35962;DHT22;22044;48.298;10.008;2022-12-20T11:32:14;2.50;99.90
35962;DHT22;22044;48.298;10.008;2022-12-20T11:35:11;2.50;99.90
35962;DHT22;22044;48.298;10.008;2022-12-20T11:38:05;2.50;99.90
35962;DHT22;22044;48.298;10.008;2022-12-20T11:40:56;2.50;99.90
35962;DHT22;22044;48.298;10.008;2022-12-20T11:44:01;2.40;99.90
35962;DHT22;22044;48.298;10.008;2022-12-20T11:47:00;2.40;99.90
35962;DHT22;22044;48.298;10.008;2022-12-20T11:49:56;2.40;99.90
35962;DHT22;22044;48.298;10.008;2022-12-20T11:52:49;2.40;99.90
35962;DHT22;22044;48.298;10.008;2022-12-20T11:55:40;2.50;99.90
35962;DHT22;22044;48.298;10.008;2022-12-20T11:58:31;2.50;99.90
35962;DHT22;22044;48.298;10.008;2022-12-20T12:01:21;2.50;99.90
35962;DHT22;22044;48.298;10.008;2022-12-20T12:04:15;2.50;99.90
35962;DHT22;22044;48.298;10.008;2022-12-20T12:07:05;2.60;99.90
35962;DHT22;22044;48.298;10.008;2022-12-20T12:09:57;2.60;99.90
35962;DHT22;22044;48.298;10.008;2022-12-20T12:12:45;2.70;99.90
35962;DHT22;22044;48.298;10.008;2022-12-20T12:15:34;2.70;99.90
35962;DHT22;22044;48.298;10.008;2022-12-20T12:18:24;2.70;99.90
35962;DHT22;22044;48.298;10.008;2022-12-20T12:21:17;2.70;99.90
35962;DHT22;22044;48.298;10.008;2022-12-20T12:24:06;2.70;99.90
35962;DHT22;22044;48.298;10.008;2022-12-20T12:26:57;2.50;99.90
35962;DHT22;22044;48.298;10.008;2022-12-20T12:29:42;2.40;99.90
35962;DHT22;22044;48.298;10.008;2022-12-20T12:32:32;2.40;99.90
35962;DHT22;22044;48.298;10.008;2022-12-20T12:35:50;2.40;99.90
35962;DHT22;22044;48.298;10.008;2022-12-20T12:45:41;2.30;99.90
35962;DHT22;22044;48.298;10.008;2022-12-20T12:48:34;2.40;99.90
35962;DHT22;22044;48.298;10.008;2022-12-20T12:51:25;2.50;99.90
35962;DHT22;22044;48.298;10.008;2022-12-20T12:54:17;2.30;99.90
35962;DHT22;22044;48.298;10.008;2022-12-20T12:57:09;2.30;99.90
35962;DHT22;22044;48.298;10.008;2022-12-20T12:59:56;2.30;99.90
35962;DHT22;22044;48.298;10.008;2022-12-20T13:02:50;2.30;99.90
35962;DHT22;22044;48.298;10.008;2022-12-20T13:05:36;2.30;99.90
35962;DHT22;22044;48.298;10.008;2022-12-20T13:08:46;2.40;99.90
35962;DHT22;22044;48.298;10.008;2022-12-20T13:11:33;2.50;99.90
35962;DHT22;22044;48.298;10.008;2022-12-20T13:14:48;2.50;99.90
35962;DHT22;22044;48.298;10.008;2022-12-20T13:17:50;2.50;99.90
35962;DHT22;22044;48.298;10.008;2022-12-20T13:20:36;2.50;99.90
35962;DHT22;22044;48.298;10.008;2022-12-20T13:23:22;2.40;99.90
35962;DHT22;22044;48.298;10.008;2022-12-20T13:26:42;2.40;99.90
35962;DHT22;22044;48.298;10.008;2022-12-20T13:29:34;2.50;99.90
35962;DHT22;22044;48.298;10.008;2022-12-20T13:36:03;2.20;99.90
35962;DHT22;22044;48.298;10.008;2022-12-20T13:38:54;2.20;99.90
35962;DHT22;22044;48.298;10.008;2022-12-20T13:41:43;2.30;99.90
35962;DHT22;22044;48.298;10.008;2022-12-20T13:44:40;2.40;99.90
35962;DHT22;22044;48.298;10.008;2022-12-20T13:47:35;2.50;99.90
35962;DHT22;22044;48.298;10.008;2022-12-20T13:50:31;2.50;99.90
35962;DHT22;22044;48.298;10.008;2022-12-20T13:53:21;2.60;99.90
35962;DHT22;22044;48.298;10.008;2022-12-20T13:56:30;2.50;99.90
35962;DHT22;22044;48.298;10.008;2022-12-20T13:59:21;2.40;99.90
35962;DHT22;22044;48.298;10.008;2022-12-20T14:02:16;2.20;99.90
35962;DHT22;22044;48.298;10.008;2022-12-20T14:05:06;2.20;99.90
35962;DHT22;22044;48.298;10.008;2022-12-20T14:07:57;2.30;99.90
35962;DHT22;22044;48.298;10.008;2022-12-20T14:10:45;2.30;99.90
35962;DHT22;22044;48.298;10.008;2022-12-20T14:13:31;2.30;99.90
35962;DHT22;22044;48.298;10.008;2022-12-20T14:16:18;2.30;99.90
35962;DHT22;22044;48.298;10.008;2022-12-20T14:19:04;2.30;99.90
35962;DHT22;22044;48.298;10.008;2022-12-20T14:21:50;2.40;99.90
35962;DHT22;22044;48.298;10.008;2022-12-20T14:24:38;2.50;99.90
35962;DHT22;22044;48.298;10.008;2022-12-20T14:27:27;2.50;99.90
35962;DHT22;22044;48.298;10.008;2022-12-20T14:30:41;2.50;99.90
35962;DHT22;22044;48.298;10.008;2022-12-20T14:33:35;2.60;99.90
35962;DHT22;22044;48.298;10.008;2022-12-20T14:36:21;2.60;99.90
35962;DHT22;22044;48.298;10.008;2022-12-20T14:39:23;2.50;99.90
35962;DHT22;22044;48.298;10.008;2022-12-20T14:42:13;2.40;99.90
35962;DHT22;22044;48.298;10.008;2022-12-20T14:45:05;2.40;99.90
35962;DHT22;22044;48.298;10.008;2022-12-20T14:47:58;2.40;99.90
35962;DHT22;22044;48.298;10.008;2022-12-20T14:50:51;2.40;99.90
35962;DHT22;22044;48.298;10.008;2022-12-20T14:53:38;2.40;99.90
35962;DHT22;22044;48.298;10.008;2022-12-20T14:56:23;2.40;99.90
35962;DHT22;22044;48.298;10.008;2022-12-20T14:59:13;2.40;99.90
35962;DHT22;22044;48.298;10.008;2022-12-20T15:02:26;2.30;99.90
35962;DHT22;22044;48.298;10.008;2022-12-20T15:05:48;2.20;99.90
35962;DHT22;22044;48.298;10.008;2022-12-20T15:08:37;2.30;99.90
35962;DHT22;22044;48.298;10.008;2022-12-20T15:11:23;2.50;99.90
35962;DHT22;22044;48.298;10.008;2022-12-20T15:14:20;2.40;99.90
35962;DHT22;22044;48.298;10.008;2022-12-20T15:17:11;2.40;99.90
35962;DHT22;22044;48.298;10.008;2022-12-20T15:19:58;2.30;99.90
35962;DHT22;22044;48.298;10.008;2022-12-20T15:22:44;2.30;99.90
35962;DHT22;22044;48.298;10.008;2022-12-20T15:25:31;2.30;99.90
35962;DHT22;22044;48.298;10.008;2022-12-20T15:28:20;2.40;99.90
35962;DHT22;22044;48.298;10.008;2022-12-20T15:31:05;2.40;99.90
35962;DHT22;22044;48.298;10.008;2022-12-20T15:33:55;2.40;99.90
35962;DHT22;22044;48.298;10.008;2022-12-20T15:36:41;2.40;99.90
35962;DHT22;22044;48.298;10.008;2022-12-20T15:39:27;2.40;99.90
35962;DHT22;22044;48.298;10.008;2022-12-20T15:42:16;2.50;99.90
35962;DHT22;22044;48.298;10.008;2022-12-20T15:45:03;2.60;99.90
35962;DHT22;22044;48.298;10.008;2022-12-20T15:47:48;2.60;99.90
35962;DHT22;22044;48.298;10.008;2022-12-20T15:50:35;2.70;99.90
35962;DHT22;22044;48.298;10.008;2022-12-20T15:53:24;2.70;99.90
35962;DHT22;22044;48.298;10.008;2022-12-20T15:56:16;2.70;99.90
35962;DHT22;22044;48.298;10.008;2022-12-20T15:59:02;2.70;99.90
35962;DHT22;22044;48.298;10.008;2022-12-20T16:01:48;2.80;99.90
35962;DHT22;22044;48.298;10.008;2022-12-20T16:04:34;2.80;99.90
35962;DHT22;22044;48.298;10.008;2022-12-20T16:07:21;2.60;99.90
35962;DHT22;22044;48.298;10.008;2022-12-20T16:10:08;2.50;99.90
35962;DHT22;22044;48.298;10.008;2022-12-20T16:12:56;2.60;99.90
35962;DHT22;22044;48.298;10.008;2022-12-20T16:15:42;2.60;99.90
35962;DHT22;22044;48.298;10.008;2022-12-20T16:18:28;2.60;99.90
35962;DHT22;22044;48.298;10.008;2022-12-20T16:21:15;2.60;99.90
35962;DHT22;22044;48.298;10.008;2022-12-20T16:24:03;2.70;99.90
35962;DHT22;22044;48.298;10.008;2022-12-20T16:26:49;2.40;99.90
35962;DHT22;22044;48.298;10.008;2022-12-20T16:29:34;2.20;99.90
35962;DHT22;22044;48.298;10.008;2022-12-20T16:32:20;2.20;99.90
35962;DHT22;22044;48.298;10.008;2022-12-20T16:35:25;2.20;99.90
35962;DHT22;22044;48.298;10.008;2022-12-20T16:38:11;2.20;99.90
35962;DHT22;22044;48.298;10.008;2022-12-20T16:41:10;2.10;99.90
35962;DHT22;22044;48.298;10.008;2022-12-20T16:43:58;1.90;99.90
35962;DHT22;22044;48.298;10.008;2022-12-20T16:46:43;2.00;99.90
35962;DHT22;22044;48.298;10.008;2022-12-20T16:49:29;2.10;99.90
35962;DHT22;22044;48.298;10.008;2022-12-20T16:52:17;2.20;99.90
35962;DHT22;22044;48.298;10.008;2022-12-20T16:55:04;2.20;99.90
35962;DHT22;22044;48.298;10.008;2022-12-20T16:57:51;2.30;99.90
35962;DHT22;22044;48.298;10.008;2022-12-20T17:00:37;2.30;99.90
35962;DHT22;22044;48.298;10.008;2022-12-20T17:03:23;2.30;99.90
35962;DHT22;22044;48.298;10.008;2022-12-20T17:06:10;2.10;99.90
35962;DHT22;22044;48.298;10.008;2022-12-20T17:08:56;2.10;99.90
35962;DHT22;22044;48.298;10.008;2022-12-20T17:11:41;2.10;99.90
35962;DHT22;22044;48.298;10.008;2022-12-20T17:14:28;2.20;99.90
35962;DHT22;22044;48.298;10.008;2022-12-20T17:17:14;2.10;99.90
35962;DHT22;22044;48.298;10.008;2022-12-20T17:20:00;1.90;99.90
35962;DHT22;22044;48.298;10.008;2022-12-20T17:22:51;1.70;99.90
35962;DHT22;22044;48.298;10.008;2022-12-20T17:25:36;1.80;99.90
35962;DHT22;22044;48.298;10.008;2022-12-20T17:28:23;1.70;99.90
35962;DHT22;22044;48.298;10.008;2022-12-20T17:31:19;1.70;99.90
35962;DHT22;22044;48.298;10.008;2022-12-20T17:34:15;1.70;99.90
35962;DHT22;22044;48.298;10.008;2022-12-20T17:37:01;1.70;99.90
35962;DHT22;22044;48.298;10.008;2022-12-20T17:39:47;1.80;99.90
35962;DHT22;22044;48.298;10.008;2022-12-20T17:42:33;1.80;99.90
35962;DHT22;22044;48.298;10.008;2022-12-20T17:45:27;1.80;99.90
35962;DHT22;22044;48.298;10.008;2022-12-20T17:48:14;1.90;99.90
35962;DHT22;22044;48.298;10.008;2022-12-20T17:51:00;2.00;99.90
35962;DHT22;22044;48.298;10.008;2022-12-20T17:53:46;2.00;99.90
35962;DHT22;22044;48.298;10.008;2022-12-20T17:56:34;2.10;99.90
35962;DHT22;22044;48.298;10.008;2022-12-20T17:59:20;2.10;99.90
35962;DHT22;22044;48.298;10.008;2022-12-20T18:02:17;2.10;99.90
35962;DHT22;22044;48.298;10.008;2022-12-20T18:05:06;2.00;99.90
35962;DHT22;22044;48.298;10.008;2022-12-20T18:07:53;1.90;99.90